Pacific Pathfinder — PATH — position and weather

sailwx.info

Track history (hours):
 
Tides and Currents Weather Stations Pressure Air Temp Water Temp Dewpoint Dewpoint Depression Visibility Wind Speed Wind Dir Waves Ship Positions

Pacific Pathfinder

Last reported at 2014-Oct-30 12:33 UTC. Time now 2014-Oct-30 12:59 UTC.
Position N 54°18' W 130°21'.

Length 15 m; draft 1.3 m.

Type: Pilot. MMSI: 316003484.

Date/timePositionNaut miles runAvg speedWind from/ knotsBaromVisibWave heightAir tempDewpointWater temp
2014-Oct-30 12:33N 54°18' W 130°21'0 0.0
2014-Oct-30 11:33N 54°18' W 130°21'0 0.0
2014-Oct-30 10:33N 54°18' W 130°21'0 0.0
2014-Oct-30 09:33N 54°18' W 130°21'0 0.0
2014-Oct-30 08:33N 54°18' W 130°21'0 0.0
2014-Oct-30 07:33N 54°18' W 130°21'5 4.7
2014-Oct-30 06:32N 54°20' W 130°29'3 1.4
2014-Oct-30 04:08N 54°18' W 130°34'610.1
2014-Oct-30 03:33N 54°19' W 130°24'6 3.1
2014-Oct-30 01:29N 54°19' W 130°35'6 6.7
2014-Oct-30 00:34N 54°19' W 130°24'8 7.4
2014-Oct-29 23:28N 54°16' W 130°38'10 3.4
2014-Oct-29 20:33N 54°18' W 130°21'0 0.0
2014-Oct-29 19:33N 54°18' W 130°21'0 0.0
2014-Oct-29 18:33N 54°18' W 130°21'0 0.0
2014-Oct-29 17:34N 54°18' W 130°21'0 0.0
2014-Oct-29 16:33N 54°18' W 130°21'0 0.0
2014-Oct-29 15:33N 54°18' W 130°21'0 0.0
2014-Oct-29 14:33N 54°18' W 130°21'0 0.0
2014-Oct-29 13:33N 54°18' W 130°21'0 0.0
2014-Oct-29 04:33N 54°18' W 130°21'0 0.0
2014-Oct-29 03:33N 54°18' W 130°21'0 0.0
2014-Oct-29 02:33N 54°18' W 130°21'0 0.0
2014-Oct-29 01:33N 54°18' W 130°21'2 0.6
2014-Oct-28 22:03N 54°19' W 130°24'2 0.9
2014-Oct-28 19:33N 54°18' W 130°21'0 0.0
2014-Oct-28 18:33N 54°18' W 130°21'0 0.0
2014-Oct-28 17:33N 54°18' W 130°21'0 0.0
2014-Oct-28 15:34N 54°18' W 130°21'0 0.0
2014-Oct-28 14:33N 54°18' W 130°21'0 0.0
2014-Oct-27 23:23N 54°18' W 130°21'0 0.0
2014-Oct-27 22:33N 54°18' W 130°21'0 0.0
2014-Oct-27 18:33N 54°18' W 130°21'0 0.0
2014-Oct-27 17:33N 54°18' W 130°21'0 0.0
2014-Oct-27 16:33N 54°18' W 130°21'0 0.0
2014-Oct-27 15:33N 54°18' W 130°21'0 0.0
2014-Oct-27 14:33N 54°18' W 130°21'0 0.0
2014-Oct-27 13:33N 54°18' W 130°21'0 0.0
2014-Oct-27 02:33N 54°18' W 130°21'0 0.0
2014-Oct-27 01:33N 54°18' W 130°21'0 0.0
2014-Oct-27 00:33N 54°18' W 130°21'0 0.0
2014-Oct-26 23:33N 54°18' W 130°21'0 0.0
2014-Oct-26 22:33N 54°18' W 130°21'0 0.0
2014-Oct-26 21:33N 54°18' W 130°21'0 0.0
2014-Oct-26 20:33N 54°18' W 130°21'0 0.0
2014-Oct-26 19:33N 54°18' W 130°21'0 0.0
2014-Oct-26 18:33N 54°18' W 130°21'0 0.0
2014-Oct-26 17:33N 54°18' W 130°21'0 0.4
2014-Oct-26 16:33N 54°18' W 130°21'3 2.8
2014-Oct-26 15:33N 54°20' W 130°25'3 1.7
2014-Oct-26 13:29N 54°17' W 130°22'1 1.1
2014-Oct-26 12:33N 54°18' W 130°21'0 0.0
2014-Oct-26 11:34N 54°18' W 130°21'0 0.0
2014-Oct-26 10:33N 54°18' W 130°21'0 0.0
2014-Oct-26 09:34N 54°18' W 130°21'0 0.0
2014-Oct-26 08:33N 54°18' W 130°21'0 0.0
2014-Oct-26 07:34N 54°18' W 130°21'0 0.0
2014-Oct-26 06:34N 54°18' W 130°21'0 0.0
2014-Oct-26 05:34N 54°18' W 130°21'0 0.0
2014-Oct-26 04:33N 54°18' W 130°21'7 2.9
2014-Oct-26 02:12N 54°18' W 130°33'710.4
2014-Oct-26 01:33N 54°18' W 130°21'0 0.0
2014-Oct-26 00:34N 54°18' W 130°21'0 0.0
2014-Oct-25 23:33N 54°18' W 130°21'0 0.0
2014-Oct-25 22:34N 54°18' W 130°21'0 0.0
2014-Oct-25 21:34N 54°18' W 130°21'0 0.0
2014-Oct-25 20:33N 54°18' W 130°21'0 0.0
2014-Oct-25 19:34N 54°18' W 130°21'0 0.0
2014-Oct-25 18:34N 54°18' W 130°21'0 0.0
2014-Oct-25 17:34N 54°18' W 130°21'0 0.0
2014-Oct-25 02:23N 54°18' W 130°21'0 0.0
2014-Oct-25 01:33N 54°18' W 130°21'0 0.0
2014-Oct-25 00:34N 54°18' W 130°21'0 0.0
2014-Oct-24 23:34N 54°18' W 130°21'0 0.0
2014-Oct-24 22:33N 54°18' W 130°21'0 0.0
2014-Oct-24 21:34N 54°18' W 130°21'0 0.0
2014-Oct-24 20:33N 54°18' W 130°21'0 0.0
2014-Oct-24 19:34N 54°18' W 130°21'0 0.0
2014-Oct-24 18:34N 54°18' W 130°21'0 0.0
2014-Oct-24 17:33N 54°18' W 130°21'0 0.0
2014-Oct-24 04:33N 54°18' W 130°21'0 0.0
2014-Oct-24 03:33N 54°18' W 130°21'0 0.0
2014-Oct-24 02:33N 54°18' W 130°21'0 0.0
2014-Oct-23 23:33N 54°18' W 130°21'0 0.0
2014-Oct-23 22:33N 54°18' W 130°21'0 0.0
2014-Oct-23 21:33N 54°18' W 130°21'0 0.0
2014-Oct-23 20:33N 54°18' W 130°21'0 0.0
2014-Oct-23 19:33N 54°18' W 130°21'2 0.0
2014-Oct-22 07:20N 54°19' W 130°23'2 0.3
2014-Oct-21 23:22N 54°17' W 130°22'1 1.3
2014-Oct-21 22:33N 54°18' W 130°21'0 0.0
2014-Oct-21 21:33N 54°18' W 130°21'0 0.0
2014-Oct-21 20:33N 54°18' W 130°21'8 3.7
2014-Oct-21 18:25N 54°15' W 130°34'8 9.2
2014-Oct-21 17:33N 54°18' W 130°21'1 0.1
2014-Oct-21 13:23N 54°17' W 130°22'1 0.7
2014-Oct-21 12:33N 54°18' W 130°21'0 0.0
2014-Oct-21 11:33N 54°18' W 130°21'1 0.3
2014-Oct-21 08:27N 54°17' W 130°22'1 1.0
2014-Oct-21 07:33N 54°18' W 130°21'0 0.0
2014-Oct-21 06:33N 54°18' W 130°21'1 1.3
2014-Oct-21 05:34N 54°19' W 130°23'2 1.1
2014-Oct-21 03:27N 54°20' W 130°26'4 4.2
2014-Oct-21 02:33N 54°18' W 130°21'0 0.0
2014-Oct-21 01:33N 54°18' W 130°21'0 0.0
2014-Oct-21 00:33N 54°18' W 130°21'0 0.0
2014-Oct-20 23:33N 54°18' W 130°21'0 0.0
2014-Oct-20 22:33N 54°18' W 130°21'0 0.0
2014-Oct-20 21:33N 54°18' W 130°21'0 0.0
2014-Oct-20 20:33N 54°18' W 130°21'0 0.0
2014-Oct-20 19:33N 54°18' W 130°21'0 0.0
2014-Oct-20 18:33N 54°18' W 130°21'0 0.0
2014-Oct-20 17:33N 54°18' W 130°21'0 0.0
2014-Oct-20 16:33N 54°18' W 130°21'  
Track history (hours):
 
Tides and Currents Weather Stations Pressure Air Temp Water Temp Dewpoint Dewpoint Depression Visibility Wind Speed Wind Dir Waves Ship Positions

Pacific Pathfinder

Last reported at 2014-Oct-30 12:33 UTC. Time now 2014-Oct-30 12:59 UTC.
Position N 54°18' W 130°21'.

Length 15 m; draft 1.3 m.

Type: Pilot. MMSI: 316003484.

Date/timePositionNaut miles runAvg speedWind from/ knotsBaromVisibWave heightAir tempDewpointWater temp
2014-Oct-30 12:33N 54°18' W 130°21'0 0.0
2014-Oct-30 11:33N 54°18' W 130°21'0 0.0
2014-Oct-30 10:33N 54°18' W 130°21'0 0.0
2014-Oct-30 09:33N 54°18' W 130°21'0 0.0
2014-Oct-30 08:33N 54°18' W 130°21'0 0.0
2014-Oct-30 07:33N 54°18' W 130°21'5 4.7
2014-Oct-30 06:32N 54°20' W 130°29'3 1.4
2014-Oct-30 04:08N 54°18' W 130°34'610.1
2014-Oct-30 03:33N 54°19' W 130°24'6 3.1
2014-Oct-30 01:29N 54°19' W 130°35'6 6.7
2014-Oct-30 00:34N 54°19' W 130°24'8 7.4
2014-Oct-29 23:28N 54°16' W 130°38'10 3.4
2014-Oct-29 20:33N 54°18' W 130°21'0 0.0
2014-Oct-29 19:33N 54°18' W 130°21'0 0.0
2014-Oct-29 18:33N 54°18' W 130°21'0 0.0
2014-Oct-29 17:34N 54°18' W 130°21'0 0.0
2014-Oct-29 16:33N 54°18' W 130°21'0 0.0
2014-Oct-29 15:33N 54°18' W 130°21'0 0.0
2014-Oct-29 14:33N 54°18' W 130°21'0 0.0
2014-Oct-29 13:33N 54°18' W 130°21'0 0.0
2014-Oct-29 04:33N 54°18' W 130°21'0 0.0
2014-Oct-29 03:33N 54°18' W 130°21'0 0.0
2014-Oct-29 02:33N 54°18' W 130°21'0 0.0
2014-Oct-29 01:33N 54°18' W 130°21'2 0.6
2014-Oct-28 22:03N 54°19' W 130°24'2 0.9
2014-Oct-28 19:33N 54°18' W 130°21'0 0.0
2014-Oct-28 18:33N 54°18' W 130°21'0 0.0
2014-Oct-28 17:33N 54°18' W 130°21'0 0.0
2014-Oct-28 15:34N 54°18' W 130°21'0 0.0
2014-Oct-28 14:33N 54°18' W 130°21'0 0.0
2014-Oct-27 23:23N 54°18' W 130°21'0 0.0
2014-Oct-27 22:33N 54°18' W 130°21'0 0.0
2014-Oct-27 18:33N 54°18' W 130°21'0 0.0
2014-Oct-27 17:33N 54°18' W 130°21'0 0.0
2014-Oct-27 16:33N 54°18' W 130°21'0 0.0
2014-Oct-27 15:33N 54°18' W 130°21'0 0.0
2014-Oct-27 14:33N 54°18' W 130°21'0 0.0
2014-Oct-27 13:33N 54°18' W 130°21'0 0.0
2014-Oct-27 02:33N 54°18' W 130°21'0 0.0
2014-Oct-27 01:33N 54°18' W 130°21'0 0.0
2014-Oct-27 00:33N 54°18' W 130°21'0 0.0
2014-Oct-26 23:33N 54°18' W 130°21'0 0.0
2014-Oct-26 22:33N 54°18' W 130°21'0 0.0
2014-Oct-26 21:33N 54°18' W 130°21'0 0.0
2014-Oct-26 20:33N 54°18' W 130°21'0 0.0
2014-Oct-26 19:33N 54°18' W 130°21'0 0.0
2014-Oct-26 18:33N 54°18' W 130°21'0 0.0
2014-Oct-26 17:33N 54°18' W 130°21'0 0.4
2014-Oct-26 16:33N 54°18' W 130°21'3 2.8
2014-Oct-26 15:33N 54°20' W 130°25'3 1.7
2014-Oct-26 13:29N 54°17' W 130°22'1 1.1
2014-Oct-26 12:33N 54°18' W 130°21'0 0.0
2014-Oct-26 11:34N 54°18' W 130°21'0 0.0
2014-Oct-26 10:33N 54°18' W 130°21'0 0.0
2014-Oct-26 09:34N 54°18' W 130°21'0 0.0
2014-Oct-26 08:33N 54°18' W 130°21'0 0.0
2014-Oct-26 07:34N 54°18' W 130°21'0 0.0
2014-Oct-26 06:34N 54°18' W 130°21'0 0.0
2014-Oct-26 05:34N 54°18' W 130°21'0 0.0
2014-Oct-26 04:33N 54°18' W 130°21'7 2.9
2014-Oct-26 02:12N 54°18' W 130°33'710.4
2014-Oct-26 01:33N 54°18' W 130°21'0 0.0
2014-Oct-26 00:34N 54°18' W 130°21'0 0.0
2014-Oct-25 23:33N 54°18' W 130°21'0 0.0
2014-Oct-25 22:34N 54°18' W 130°21'0 0.0
2014-Oct-25 21:34N 54°18' W 130°21'0 0.0
2014-Oct-25 20:33N 54°18' W 130°21'0 0.0
2014-Oct-25 19:34N 54°18' W 130°21'0 0.0
2014-Oct-25 18:34N 54°18' W 130°21'0 0.0
2014-Oct-25 17:34N 54°18' W 130°21'0 0.0
2014-Oct-25 02:23N 54°18' W 130°21'0 0.0
2014-Oct-25 01:33N 54°18' W 130°21'0 0.0
2014-Oct-25 00:34N 54°18' W 130°21'0 0.0
2014-Oct-24 23:34N 54°18' W 130°21'0 0.0
2014-Oct-24 22:33N 54°18' W 130°21'0 0.0
2014-Oct-24 21:34N 54°18' W 130°21'0 0.0
2014-Oct-24 20:33N 54°18' W 130°21'0 0.0
2014-Oct-24 19:34N 54°18' W 130°21'0 0.0
2014-Oct-24 18:34N 54°18' W 130°21'0 0.0
2014-Oct-24 17:33N 54°18' W 130°21'0 0.0
2014-Oct-24 04:33N 54°18' W 130°21'0 0.0
2014-Oct-24 03:33N 54°18' W 130°21'0 0.0
2014-Oct-24 02:33N 54°18' W 130°21'0 0.0
2014-Oct-23 23:33N 54°18' W 130°21'0 0.0
2014-Oct-23 22:33N 54°18' W 130°21'0 0.0
2014-Oct-23 21:33N 54°18' W 130°21'0 0.0
2014-Oct-23 20:33N 54°18' W 130°21'0 0.0
2014-Oct-23 19:33N 54°18' W 130°21'2 0.0
2014-Oct-22 07:20N 54°19' W 130°23'2 0.3
2014-Oct-21 23:22N 54°17' W 130°22'1 1.3
2014-Oct-21 22:33N 54°18' W 130°21'0 0.0
2014-Oct-21 21:33N 54°18' W 130°21'0 0.0
2014-Oct-21 20:33N 54°18' W 130°21'8 3.7
2014-Oct-21 18:25N 54°15' W 130°34'8 9.2
2014-Oct-21 17:33N 54°18' W 130°21'1 0.1
2014-Oct-21 13:23N 54°17' W 130°22'1 0.7
2014-Oct-21 12:33N 54°18' W 130°21'0 0.0
2014-Oct-21 11:33N 54°18' W 130°21'1 0.3
2014-Oct-21 08:27N 54°17' W 130°22'1 1.0
2014-Oct-21 07:33N 54°18' W 130°21'0 0.0
2014-Oct-21 06:33N 54°18' W 130°21'1 1.3
2014-Oct-21 05:34N 54°19' W 130°23'2 1.1
2014-Oct-21 03:27N 54°20' W 130°26'4 4.2
2014-Oct-21 02:33N 54°18' W 130°21'0 0.0
2014-Oct-21 01:33N 54°18' W 130°21'0 0.0
2014-Oct-21 00:33N 54°18' W 130°21'0 0.0
2014-Oct-20 23:33N 54°18' W 130°21'0 0.0
2014-Oct-20 22:33N 54°18' W 130°21'0 0.0
2014-Oct-20 21:33N 54°18' W 130°21'0 0.0
2014-Oct-20 20:33N 54°18' W 130°21'0 0.0
2014-Oct-20 19:33N 54°18' W 130°21'0 0.0
2014-Oct-20 18:33N 54°18' W 130°21'0 0.0
2014-Oct-20 17:33N 54°18' W 130°21'0 0.0
2014-Oct-20 16:33N 54°18' W 130°21'  

Dump ship's entire track history